Time;durP1;ratioP1;P1;durP2;ratioP2;P2;SDS_P1;SDS_P2;PMS_P1;PMS_P2;Temp;Humidity;BMP_temperature;BMP_pressure;BME280_temperature;BME280_humidity;BME280_pressure;Samples;Min_cycle;Max_cycle;Signal;HPM_P1;HPM_P2
2024/03/04 00:01:36;;;;;;;18.52;10.82;;;;;;;6.49;100.00;95932.06;5070208;28;20055;-65
2024/03/04 00:04:03;;;;;;;18.17;11.88;;;;;;;6.46;100.00;95939.84;5066271;28;20119;-65
2024/03/04 00:06:30;;;;;;;18.35;11.77;;;;;;;6.45;100.00;95938.22;5079217;28;20521;-65
2024/03/04 00:08:56;;;;;;;20.75;10.98;;;;;;;6.38;100.00;95936.56;5077953;28;20534;-65
2024/03/04 00:11:23;;;;;;;17.92;11.02;;;;;;;6.38;100.00;95939.25;5066335;28;20059;-65
2024/03/04 00:13:49;;;;;;;18.35;11.10;;;;;;;6.37;100.00;95948.41;5079518;28;20135;-65
2024/03/04 00:16:16;;;;;;;20.17;11.90;;;;;;;6.34;100.00;95951.59;5070053;28;20514;-65
2024/03/04 00:18:42;;;;;;;18.52;11.00;;;;;;;6.31;100.00;95957.53;5077880;28;20385;-65
2024/03/04 00:21:09;;;;;;;16.50;10.63;;;;;;;6.29;100.00;95964.19;5071185;28;20052;-65
2024/03/04 00:23:36;;;;;;;17.45;10.88;;;;;;;6.26;100.00;95967.44;5073851;28;20047;-65
2024/03/04 00:26:06;;;;;;;15.13;10.50;;;;;;;6.25;100.00;95969.28;5083674;28;20033;-65
2024/03/04 00:28:33;;;;;;;18.40;11.75;;;;;;;6.27;100.00;95971.72;5070606;28;20652;-65
2024/03/04 00:30:59;;;;;;;15.48;10.57;;;;;;;6.29;100.00;95974.94;5074057;28;20048;-65
2024/03/04 00:33:26;;;;;;;16.42;10.77;;;;;;;6.29;100.00;95977.63;5081056;28;20041;-64
2024/03/04 00:35:53;;;;;;;16.45;10.38;;;;;;;6.27;100.00;95977.09;5072356;28;20040;-65
2024/03/04 00:38:20;;;;;;;16.40;10.05;;;;;;;6.22;100.00;95984.06;5080096;28;20041;-65
2024/03/04 00:40:46;;;;;;;14.82;9.27;;;;;;;6.22;100.00;95983.25;5077898;28;20517;-64
2024/03/04 00:43:13;;;;;;;17.23;10.73;;;;;;;6.21;100.00;95982.44;5061204;28;20036;-65
2024/03/04 00:45:39;;;;;;;17.90;9.88;;;;;;;6.21;100.00;95987.81;5073239;28;20123;-64
2024/03/04 00:48:06;;;;;;;16.73;10.77;;;;;;;6.17;100.00;95988.59;5073161;28;20098;-64
2024/03/04 00:50:33;;;;;;;18.65;11.02;;;;;;;6.16;100.00;95993.13;5079012;28;20064;-64
2024/03/04 00:53:01;;;;;;;14.32;9.48;;;;;;;6.15;100.00;95988.03;5075528;28;20112;-65
2024/03/04 00:55:29;;;;;;;15.15;9.30;;;;;;;6.18;100.00;95998.25;5067713;28;20286;-64
2024/03/04 00:57:55;;;;;;;16.25;9.90;;;;;;;6.18;100.00;95990.19;5065803;28;20094;-65
2024/03/04 01:00:23;;;;;;;16.27;11.10;;;;;;;6.16;100.00;95995.03;5053571;28;20124;-64
2024/03/04 01:02:53;;;;;;;17.02;9.95;;;;;;;6.18;100.00;95995.56;5058014;28;20043;-64
2024/03/04 01:05:20;;;;;;;18.02;10.98;;;;;;;6.16;100.00;96000.41;5058901;28;20140;-65
2024/03/04 01:07:47;;;;;;;17.90;10.93;;;;;;;6.07;100.00;96008.94;5051604;28;20127;-64
2024/03/04 01:10:13;;;;;;;15.23;9.48;;;;;;;6.06;100.00;96020.78;5065624;28;20036;-64
2024/03/04 01:12:40;;;;;;;16.35;11.20;;;;;;;6.01;100.00;96023.34;5053601;28;20102;-65
2024/03/04 01:15:08;;;;;;;18.40;10.32;;;;;;;6.01;100.00;96026.03;5054155;28;20212;-65
2024/03/04 01:17:36;;;;;;;17.23;10.48;;;;;;;5.89;100.00;96020.06;5061497;28;20048;-65
2024/03/04 01:20:03;;;;;;;18.65;11.73;;;;;;;5.83;100.00;96027.25;5057754;28;20033;-65
2024/03/04 01:22:30;;;;;;;17.15;10.20;;;;;;;5.77;100.00;96028.25;5063590;28;20051;-65
2024/03/04 01:24:57;;;;;;;19.50;11.05;;;;;;;5.72;100.00;96029.81;5055686;28;20048;-65
2024/03/04 01:27:23;;;;;;;15.05;10.18;;;;;;;5.69;100.00;96027.66;5058611;28;20117;-64
2024/03/04 01:29:50;;;;;;;20.02;11.57;;;;;;;5.62;100.00;96027.06;5059448;28;20044;-65
2024/03/04 01:32:17;;;;;;;17.52;10.80;;;;;;;5.59;100.00;96036.44;5051362;28;20037;-65
2024/03/04 01:34:44;;;;;;;18.45;11.13;;;;;;;5.53;100.00;96033.94;5054002;28;20561;-65
2024/03/04 01:37:10;;;;;;;17.35;9.82;;;;;;;5.53;100.00;96042.78;5057917;28;20047;-65
2024/03/04 01:39:37;;;;;;;17.27;10.70;;;;;;;5.53;100.00;96048.16;5057086;28;20161;-65
2024/03/04 01:42:04;;;;;;;17.27;10.65;;;;;;;5.53;100.00;96058.91;5051423;28;20504;-65
2024/03/04 01:44:36;;;;;;;16.85;10.73;;;;;;;5.51;100.00;96055.66;5056706;28;20037;-65
2024/03/04 01:47:05;;;;;;;18.50;11.82;;;;;;;5.47;100.00;96063.44;5056714;28;20045;-65
2024/03/04 01:49:34;;;;;;;21.13;11.88;;;;;;;5.52;100.00;96061.84;5056310;28;20410;-65
2024/03/04 01:52:02;;;;;;;21.73;12.45;;;;;;;5.50;100.00;96067.47;5059312;28;20036;-64
2024/03/04 01:54:30;;;;;;;18.88;11.20;;;;;;;5.54;100.00;96073.16;5055758;28;20040;-65
2024/03/04 01:56:57;;;;;;;20.58;12.88;;;;;;;5.58;100.00;96075.09;5063796;28;20036;-65
2024/03/04 01:59:26;;;;;;;22.35;11.98;;;;;;;5.58;100.00;96082.31;5060692;28;20086;-65
2024/03/04 02:01:53;;;;;;;20.98;12.82;;;;;;;5.60;100.00;96089.06;5049313;28;20040;-64
2024/03/04 02:04:20;;;;;;;21.42;13.30;;;;;;;5.60;100.00;96088.25;5052552;28;20049;-65
2024/03/04 02:06:49;;;;;;;26.80;15.15;;;;;;;5.59;100.00;96100.03;5048767;28;20151;-64
2024/03/04 02:09:17;;;;;;;23.63;14.55;;;;;;;5.63;100.00;96098.47;5060263;28;20698;-64
2024/03/04 02:11:44;;;;;;;25.33;14.20;;;;;;;5.62;100.00;96110.28;5062474;28;20049;-64
2024/03/04 02:14:11;;;;;;;25.20;14.57;;;;;;;5.65;100.00;96106.28;5052862;28;20067;-64
2024/03/04 02:16:38;;;;;;;25.00;15.07;;;;;;;5.62;100.00;96118.34;5060007;28;20037;-64
2024/03/04 02:19:06;;;;;;;23.30;13.55;;;;;;;5.67;100.00;96114.91;5053689;28;20036;-64
2024/03/04 02:21:38;;;;;;;27.33;15.25;;;;;;;5.64;100.00;96116.22;5048737;28;20114;-64
2024/03/04 02:24:05;;;;;;;25.60;15.63;;;;;;;5.62;100.00;96123.72;5064629;28;20516;-64
2024/03/04 02:26:33;;;;;;;28.48;15.07;;;;;;;5.60;100.00;96128.50;5053997;28;20040;-64
2024/03/04 02:29:00;;;;;;;27.65;15.45;;;;;;;5.67;100.00;96125.63;5058042;28;20048;-65
2024/03/04 02:31:29;;;;;;;30.38;15.63;;;;;;;5.63;100.00;96122.66;5052166;28;20114;-64
2024/03/04 02:33:57;;;;;;;28.30;15.43;;;;;;;5.62;100.00;96114.84;5057701;28;20040;-64
2024/03/04 02:36:24;;;;;;;29.05;16.05;;;;;;;5.65;100.00;96114.34;5052580;28;20178;-64
2024/03/04 02:38:52;;;;;;;29.35;16.35;;;;;;;5.63;100.00;96117.28;5057578;28;20122;-64
2024/03/04 02:41:19;;;;;;;24.70;15.23;;;;;;;5.65;100.00;96112.50;5057671;28;20512;-64
2024/03/04 02:43:47;;;;;;;29.00;15.98;;;;;;;5.63;100.00;96124.53;5056676;28;20140;-64
2024/03/04 02:46:18;;;;;;;25.25;15.57;;;;;;;5.60;100.00;96126.66;5049913;28;20481;-64
2024/03/04 02:48:46;;;;;;;;;;;;;;;5.64;100.00;96140.38;5048295;28;20041;-64
2024/03/04 02:51:13;;;;;;;26.95;15.73;;;;;;;5.66;100.00;96145.50;5056812;28;19970;-64
2024/03/04 02:53:39;;;;;;;30.02;16.67;;;;;;;5.67;100.00;96147.13;5058689;28;20515;-64
2024/03/04 02:56:06;;;;;;;29.38;17.52;;;;;;;5.67;100.00;96158.69;5048683;28;20047;-64
2024/03/04 02:58:32;;;;;;;28.63;17.10;;;;;;;5.68;100.00;96156.81;5046117;28;20542;-64
2024/03/04 03:00:59;;;;;;;33.78;18.65;;;;;;;5.71;100.00;96169.72;5057654;28;20066;-64
2024/03/04 03:03:26;;;;;;;32.90;17.40;;;;;;;5.70;100.00;96163.56;5051998;28;20115;-64
2024/03/04 03:05:53;;;;;;;33.22;16.90;;;;;;;5.72;100.00;96168.69;5061696;28;20036;-64
2024/03/04 03:08:19;;;;;;;31.33;16.55;;;;;;;5.75;100.00;96162.00;5055667;28;20055;-64
2024/03/04 03:10:46;;;;;;;31.93;16.67;;;;;;;5.80;100.00;96165.56;5055337;28;20436;-64
2024/03/04 03:13:13;;;;;;;30.77;17.38;;;;;;;5.77;100.00;96179.50;5048003;28;20639;-64
2024/03/04 03:15:40;;;;;;;31.95;17.67;;;;;;;5.80;100.00;96167.44;5056802;28;20037;-64
2024/03/04 03:18:07;;;;;;;32.13;17.90;;;;;;;5.80;100.00;96170.94;5071169;28;20718;-64
2024/03/04 03:20:34;;;;;;;31.48;17.55;;;;;;;5.78;100.00;96170.38;5057946;28;20060;-64
2024/03/04 03:23:01;;;;;;;32.70;17.05;;;;;;;5.76;100.00;96175.19;5055453;28;20094;-64
2024/03/04 03:25:28;;;;;;;32.22;18.40;;;;;;;5.75;100.00;96178.91;5056927;28;20094;-64
2024/03/04 03:27:54;;;;;;;32.08;16.30;;;;;;;5.78;100.00;96181.09;5057910;28;20663;-64
2024/03/04 03:30:23;;;;;;;30.77;16.90;;;;;;;5.78;100.00;96180.31;5064646;28;20118;-64
2024/03/04 03:32:49;;;;;;;32.42;19.20;;;;;;;5.75;100.00;96197.72;5054608;28;20118;-64
2024/03/04 03:35:16;;;;;;;37.35;18.67;;;;;;;5.75;100.00;96189.66;5046414;28;20040;-63
2024/03/04 03:37:42;;;;;;;35.38;19.70;;;;;;;5.72;100.00;96200.94;5052889;28;20091;-64
2024/03/04 03:40:10;;;;;;;33.33;17.73;;;;;;;5.68;100.00;96202.47;5057051;28;20041;-64
2024/03/04 03:42:36;;;;;;;31.60;17.00;;;;;;;5.70;100.00;96195.78;5064294;28;20119;-66
2024/03/04 03:45:03;;;;;;;32.58;18.02;;;;;;;5.70;100.00;96195.78;5046709;28;20075;-66
2024/03/04 03:47:30;;;;;;;33.05;17.55;;;;;;;5.66;100.00;96208.09;5057930;28;20041;-65
2024/03/04 03:49:57;;;;;;;35.17;17.70;;;;;;;5.68;100.00;96210.53;5063761;28;20063;-66
2024/03/04 03:52:24;;;;;;;35.22;19.20;;;;;;;5.63;100.00;96207.78;5046069;28;20033;-65
2024/03/04 03:54:51;;;;;;;31.90;17.88;;;;;;;5.65;100.00;96211.03;5056918;28;20138;-66
2024/03/04 03:57:17;;;;;;;31.10;17.25;;;;;;;5.65;100.00;96222.59;5054099;28;20044;-66
2024/03/04 03:59:44;;;;;;;36.65;19.08;;;;;;;5.67;100.00;96233.06;5049549;28;20041;-66
2024/03/04 04:02:10;;;;;;;36.35;17.70;;;;;;;5.65;100.00;96237.88;5060915;28;20044;-66
2024/03/04 04:04:37;;;;;;;33.90;17.88;;;;;;;5.67;100.00;96239.25;5058680;28;20107;-66
2024/03/04 04:07:04;;;;;;;38.58;18.08;;;;;;;5.69;100.00;96247.06;5056404;28;20037;-66
2024/03/04 04:09:30;;;;;;;35.95;17.85;;;;;;;5.72;100.00;96257.31;5063303;28;20555;-66
2024/03/04 04:11:57;;;;;;;37.72;17.23;;;;;;;5.79;100.00;96266.00;5051249;28;20041;-66
2024/03/04 04:14:24;;;;;;;35.85;18.52;;;;;;;5.78;100.00;96277.00;5064168;28;20084;-66
2024/03/04 04:16:51;;;;;;;39.22;19.08;;;;;;;5.84;100.00;96268.78;5053265;28;20091;-66
2024/03/04 04:19:18;;;;;;;36.10;18.33;;;;;;;5.84;100.00;96281.38;5054720;28;20048;-66
2024/03/04 04:21:45;;;;;;;32.13;17.85;;;;;;;5.87;100.00;96294.31;5054710;28;20040;-66
2024/03/04 04:24:11;;;;;;;40.45;20.30;;;;;;;5.77;100.00;96303.06;5058605;28;20041;-66
2024/03/04 04:26:37;;;;;;;42.30;19.30;;;;;;;5.82;100.00;96300.44;5051883;28;20056;-66
2024/03/04 04:29:04;;;;;;;40.78;19.48;;;;;;;5.77;100.00;96313.78;5056537;28;20047;-65
2024/03/04 04:31:31;;;;;;;37.45;18.23;;;;;;;5.79;100.00;96314.34;5062180;28;20474;-67
2024/03/04 04:33:57;;;;;;;35.85;19.75;;;;;;;5.75;100.00;96315.09;5049034;28;20073;-66
2024/03/04 04:36:25;;;;;;;43.58;21.70;;;;;;;5.67;100.00;96310.94;5052819;28;20052;-66
2024/03/04 04:38:52;;;;;;;43.28;20.52;;;;;;;5.71;100.00;96320.13;5065944;28;20542;-66
2024/03/04 04:41:19;;;;;;;35.53;19.30;;;;;;;5.68;100.00;96318.75;5060496;28;20040;-65
2024/03/04 04:43:45;;;;;;;40.90;19.08;;;;;;;5.71;100.00;96325.50;5060843;28;20037;-66
2024/03/04 04:46:12;;;;;;;43.80;23.70;;;;;;;5.70;100.00;96329.25;5057940;28;20049;-66
2024/03/04 04:48:40;;;;;;;43.85;20.77;;;;;;;5.72;100.00;96335.22;5051823;28;20037;-65
2024/03/04 04:51:06;;;;;;;43.08;20.45;;;;;;;5.71;100.00;96333.56;5065648;28;20583;-66
2024/03/04 04:53:33;;;;;;;45.17;21.23;;;;;;;5.67;100.00;96332.44;5054012;28;20040;-66
2024/03/04 04:56:00;;;;;;;46.88;20.88;;;;;;;5.69;100.00;96349.97;5059879;28;20043;-66
2024/03/04 04:58:28;;;;;;;41.28;21.17;;;;;;;5.69;100.00;96349.13;5062871;28;20054;-66
2024/03/04 05:00:56;;;;;;;45.85;21.00;;;;;;;5.66;100.00;96354.97;5052850;28;20074;-65
2024/03/04 05:03:23;;;;;;;50.50;22.27;;;;;;;5.69;100.00;96357.19;5062169;28;20040;-65
2024/03/04 05:06:14;;;;;;;41.53;20.95;;;;;;;5.68;100.00;96364.41;5053355;28;20098;-66
2024/03/04 05:08:40;;;;;;;44.50;20.27;;;;;;;5.69;100.00;96368.75;5058599;28;20718;-66
2024/03/04 05:11:10;;;;;;;46.50;21.67;;;;;;;5.73;100.00;96377.94;5058953;28;20041;-66
2024/03/04 05:13:37;;;;;;;45.22;20.63;;;;;;;5.75;100.00;96376.88;5057292;28;20037;-66
2024/03/04 05:16:05;;;;;;;42.45;21.17;;;;;;;5.68;100.00;96382.44;5064271;28;20127;-66
2024/03/04 05:18:32;;;;;;;46.35;21.13;;;;;;;5.82;100.00;96385.59;5063645;28;20048;-66
2024/03/04 05:20:58;;;;;;;41.95;20.83;;;;;;;5.73;100.00;96390.56;5052290;28;20716;-66
2024/03/04 05:23:25;;;;;;;51.40;23.23;;;;;;;5.70;100.00;96393.72;5062860;28;20083;-66
2024/03/04 05:25:52;;;;;;;54.72;22.30;;;;;;;5.70;100.00;96394.56;5057251;28;20040;-66
2024/03/04 05:28:18;;;;;;;45.50;21.90;;;;;;;5.70;100.00;96404.47;5058079;28;20040;-66
2024/03/04 05:30:45;;;;;;;48.67;22.30;;;;;;;5.71;100.00;96406.09;5062226;28;20036;-66
2024/03/04 05:33:12;;;;;;;48.17;23.40;;;;;;;5.69;100.00;96410.91;5060495;28;20047;-66
2024/03/04 05:35:40;;;;;;;45.75;21.58;;;;;;;5.67;100.00;96411.16;5063216;28;20454;-66
2024/03/04 05:38:07;;;;;;;45.20;22.77;;;;;;;5.75;100.00;96417.97;5056338;28;20033;-66
2024/03/04 05:40:34;;;;;;;46.08;21.65;;;;;;;5.84;100.00;96419.22;5053035;28;20480;-66
2024/03/04 05:43:01;;;;;;;46.40;21.48;;;;;;;5.76;100.00;96424.16;5055491;28;20036;-66
2024/03/04 05:45:30;;;;;;;48.80;21.88;;;;;;;5.73;100.00;96428.16;5051013;28;20037;-66
2024/03/04 05:47:57;;;;;;;45.13;21.10;;;;;;;5.72;100.00;96434.59;5058699;28;20459;-66
2024/03/04 05:50:24;;;;;;;44.92;22.50;;;;;;;5.64;100.00;96429.63;5051430;28;20052;-66
2024/03/04 05:52:50;;;;;;;49.35;21.30;;;;;;;5.69;100.00;96435.06;5060226;28;20045;-66
2024/03/04 05:55:17;;;;;;;49.92;23.67;;;;;;;5.64;100.00;96443.84;5059120;28;20033;-66
2024/03/04 05:57:44;;;;;;;52.00;22.58;;;;;;;5.66;100.00;96448.97;5061345;28;20645;-66
2024/03/04 06:00:16;;;;;;;52.75;24.27;;;;;;;5.63;100.00;96455.66;5064783;28;20045;-66
2024/03/04 06:02:44;;;;;;;47.35;23.33;;;;;;;5.71;100.00;96457.94;5068143;28;20622;-66
2024/03/04 06:05:11;;;;;;;43.90;20.90;;;;;;;5.70;100.00;96458.19;5067592;28;20040;-66
2024/03/04 06:07:38;;;;;;;47.85;21.50;;;;;;;5.67;100.00;96461.34;5054673;28;20414;-66
2024/03/04 06:10:05;;;;;;;55.20;23.88;;;;;;;5.65;100.00;96469.69;5063860;28;20040;-66
2024/03/04 06:12:32;;;;;;;52.13;24.70;;;;;;;5.59;100.00;96468.78;5063440;28;20074;-66
2024/03/04 06:14:59;;;;;;;56.05;24.60;;;;;;;5.59;100.00;96465.25;5050420;28;20040;-66
2024/03/04 06:17:29;;;;;;;55.03;24.40;;;;;;;5.55;100.00;96470.31;5058438;28;20693;-66
2024/03/04 06:19:55;;;;;;;56.38;25.88;;;;;;;5.53;100.00;96468.91;5061949;28;20036;-66
2024/03/04 06:22:22;;;;;;;50.53;24.45;;;;;;;5.60;100.00;96475.75;5050203;28;20040;-66
2024/03/04 06:24:49;;;;;;;51.90;24.45;;;;;;;5.59;100.00;96479.50;5048824;28;20137;-66
2024/03/04 06:27:16;;;;;;;52.78;23.52;;;;;;;5.70;100.00;96480.50;5060411;28;20044;-66
2024/03/04 06:29:43;;;;;;;53.25;24.60;;;;;;;5.65;100.00;96480.41;5049054;28;20047;-66
2024/03/04 06:32:09;;;;;;;47.67;22.17;;;;;;;5.66;100.00;96486.59;5049559;28;20044;-66
2024/03/04 06:34:36;;;;;;;54.38;24.45;;;;;;;5.56;100.00;96490.72;5049722;28;20044;-66
2024/03/04 06:37:02;;;;;;;55.20;24.73;;;;;;;5.57;100.00;96495.03;5053922;28;20040;-66
2024/03/04 06:39:29;;;;;;;58.85;26.40;;;;;;;5.57;100.00;96497.72;5051875;28;20733;-66
2024/03/04 06:41:56;;;;;;;60.83;27.90;;;;;;;5.55;100.00;96494.47;5055231;28;20052;-66
2024/03/04 06:44:22;;;;;;;54.83;25.98;;;;;;;5.57;100.00;96499.59;5063692;28;20088;-67
2024/03/04 06:46:49;;;;;;;60.83;25.75;;;;;;;5.55;100.00;96510.59;5046094;28;20047;-66
2024/03/04 06:49:16;;;;;;;55.75;24.60;;;;;;;5.58;100.00;96525.41;5047430;28;20122;-66
2024/03/04 06:51:42;;;;;;;64.10;25.58;;;;;;;5.59;100.00;96527.03;5062343;28;20131;-66
2024/03/04 06:54:12;;;;;;;54.45;24.52;;;;;;;5.60;100.00;96521.41;5045475;28;20045;-66
2024/03/04 06:56:38;;;;;;;60.72;26.55;;;;;;;5.59;100.00;96527.03;5058769;28;20036;-66
2024/03/04 06:59:05;;;;;;;64.28;24.98;;;;;;;5.56;100.00;96532.88;5048509;28;20044;-66
2024/03/04 07:01:31;;;;;;;56.67;25.38;;;;;;;5.59;100.00;96537.75;5049203;28;20068;-66
2024/03/04 07:03:58;;;;;;;54.20;24.42;;;;;;;5.57;100.00;96540.69;5044974;28;20050;-66
2024/03/04 07:06:25;;;;;;;62.58;23.83;;;;;;;5.60;100.00;96539.38;5059325;28;20119;-66
2024/03/04 07:08:52;;;;;;;56.95;24.10;;;;;;;5.63;100.00;96549.66;5057088;28;20055;-66
2024/03/04 07:11:21;;;;;;;66.20;26.13;;;;;;;5.62;100.00;96541.84;5046405;28;20569;-66
2024/03/04 07:13:48;;;;;;;63.67;24.40;;;;;;;5.63;100.00;96549.66;5056893;28;20767;-66
2024/03/04 07:16:15;;;;;;;58.10;24.02;;;;;;;5.66;100.00;96545.66;5048147;28;20047;-66
2024/03/04 07:18:42;;;;;;;62.75;26.33;;;;;;;5.64;100.00;96553.16;5057367;28;20043;-66
2024/03/04 07:21:14;;;;;;;74.35;28.30;;;;;;;5.70;100.00;96561.06;5053788;28;20060;-67
2024/03/04 07:23:41;;;;;;;63.05;30.67;;;;;;;5.70;100.00;96560.25;5062457;28;20055;-66
2024/03/04 07:26:11;;;;;;;65.18;29.80;;;;;;;5.70;100.00;96555.72;5057643;28;20774;-67
2024/03/04 07:28:41;;;;;;;61.03;23.90;;;;;;;5.78;100.00;96562.56;5059204;28;20048;-66
2024/03/04 07:31:08;;;;;;;57.63;25.13;;;;;;;5.87;100.00;96557.63;5044835;28;20045;-66
2024/03/04 07:33:35;;;;;;;63.80;28.35;;;;;;;5.90;100.00;96565.16;5063427;28;20051;-67
2024/03/04 07:36:02;;;;;;;57.67;24.80;;;;;;;5.96;100.00;96566.09;5050658;28;20523;-66
2024/03/04 07:38:30;;;;;;;62.45;27.77;;;;;;;5.84;100.00;96558.91;5047316;28;20048;-66
2024/03/04 07:40:56;;;;;;;59.97;24.95;;;;;;;5.94;100.00;96552.88;5058543;28;20086;-66
2024/03/04 07:43:24;;;;;;;55.92;23.58;;;;;;;6.00;100.00;96551.09;5054270;28;20075;-66
2024/03/04 07:45:52;;;;;;;51.95;23.05;;;;;;;6.16;100.00;96554.09;5049045;28;20059;-66
2024/03/04 07:48:18;;;;;;;53.38;26.27;;;;;;;6.07;100.00;96554.50;5057838;28;20110;-67
2024/03/04 07:50:45;;;;;;;56.97;26.45;;;;;;;6.03;100.00;96552.50;5050497;28;20531;-66
2024/03/04 07:53:11;;;;;;;57.65;25.05;;;;;;;5.99;100.00;96552.16;5045492;28;20051;-65
2024/03/04 07:55:38;;;;;;;61.08;25.00;;;;;;;6.04;100.00;96554.97;5054281;28;20671;-65
2024/03/04 07:58:05;;;;;;;62.45;24.67;;;;;;;6.09;100.00;96563.09;5059319;28;20044;-66
2024/03/04 08:00:32;;;;;;;60.95;28.08;;;;;;;6.07;100.00;96567.09;5049127;28;20045;-66
2024/03/04 08:02:59;;;;;;;57.05;24.13;;;;;;;6.12;100.00;96569.91;5057365;28;20131;-66
2024/03/04 08:05:26;;;;;;;60.72;26.40;;;;;;;6.10;100.00;96572.00;5058040;28;20045;-65
2024/03/04 08:07:52;;;;;;;65.15;25.88;;;;;;;6.08;100.00;96572.25;5055411;28;20052;-65
2024/03/04 08:10:19;;;;;;;71.20;27.85;;;;;;;6.09;100.00;96575.75;5060851;28;20044;-65
2024/03/04 08:12:45;;;;;;;65.38;26.17;;;;;;;6.05;100.00;96575.41;5054144;28;20048;-65
2024/03/04 08:15:12;;;;;;;62.63;25.88;;;;;;;6.14;100.00;96577.69;5065344;28;20740;-66
2024/03/04 08:17:38;;;;;;;60.75;24.50;;;;;;;6.17;100.00;96591.47;5063660;28;20485;-65
2024/03/04 08:20:21;;;;;;;62.63;27.10;;;;;;;6.24;100.00;96581.38;5055889;28;20538;-66
2024/03/04 08:22:59;;;;;;;54.97;25.50;;;;;;;6.23;100.00;96590.50;5067092;28;20044;-66
2024/03/04 08:25:26;;;;;;;64.10;27.17;;;;;;;6.32;100.00;96584.72;5052582;28;20033;-65
2024/03/04 08:27:53;;;;;;;67.07;27.15;;;;;;;6.37;100.00;96590.19;5061190;28;20124;-65
2024/03/04 08:30:19;;;;;;;60.25;26.85;;;;;;;6.17;100.00;96594.19;5054847;28;20080;-65
2024/03/04 08:32:46;;;;;;;60.58;26.33;;;;;;;6.21;100.00;96605.25;5060895;28;20051;-65
2024/03/04 08:35:12;;;;;;;69.20;29.60;;;;;;;6.17;100.00;96602.25;5063544;28;20068;-65
2024/03/04 08:37:39;;;;;;;64.13;27.83;;;;;;;6.21;100.00;96607.94;5053572;28;20135;-65
2024/03/04 08:40:07;;;;;;;70.85;27.70;;;;;;;6.47;100.00;96600.28;5063521;28;20166;-65
2024/03/04 08:42:43;;;;;;;54.78;23.90;;;;;;;6.44;100.00;96600.78;5051933;28;20444;-65
2024/03/04 08:45:09;;;;;;;58.92;24.25;;;;;;;6.42;100.00;96605.59;5057855;28;20057;-65
2024/03/04 08:47:36;;;;;;;54.42;25.20;;;;;;;6.50;100.00;96608.66;5050745;28;20915;-65
2024/03/04 08:50:04;;;;;;;57.33;26.98;;;;;;;6.43;100.00;96613.41;5055991;28;20101;-65
2024/03/04 08:52:30;;;;;;;54.10;24.95;;;;;;;6.47;100.00;96619.13;5060420;28;20048;-65
2024/03/04 08:54:57;;;;;;;60.92;26.60;;;;;;;6.33;100.00;96624.00;5069932;28;20128;-64
2024/03/04 08:57:24;;;;;;;60.35;25.77;;;;;;;6.43;100.00;96626.88;5055438;28;20533;-65
2024/03/04 08:59:50;;;;;;;56.20;26.15;;;;;;;6.40;100.00;96627.34;5068434;28;20048;-65
2024/03/04 09:02:18;;;;;;;69.38;33.90;;;;;;;6.29;100.00;96636.28;5056827;28;20127;-65
2024/03/04 09:04:49;;;;;;;69.65;30.60;;;;;;;6.36;100.00;96627.03;5060221;28;20574;-65
2024/03/04 09:07:16;;;;;;;62.92;28.30;;;;;;;6.38;100.00;96624.91;5060802;28;20428;-65
2024/03/04 09:09:50;;;;;;;67.82;31.38;;;;;;;6.48;100.00;96620.75;5059964;28;20044;-66
2024/03/04 09:12:17;;;;;;;65.85;28.10;;;;;;;6.46;100.00;96630.94;5050588;28;20037;-65
2024/03/04 09:14:44;;;;;;;62.38;26.83;;;;;;;6.65;100.00;96626.13;5054487;28;20036;-65
2024/03/04 09:17:11;;;;;;;54.13;25.15;;;;;;;6.72;100.00;96626.78;5049511;28;20069;-65
2024/03/04 09:19:41;;;;;;;60.60;27.42;;;;;;;6.63;100.00;96628.25;5068597;28;20119;-65
2024/03/04 09:22:08;;;;;;;59.67;25.13;;;;;;;6.58;100.00;96623.59;5048924;28;20045;-65
2024/03/04 09:24:35;;;;;;;58.65;26.45;;;;;;;6.68;100.00;96635.59;5063515;28;20076;-65
2024/03/04 09:27:06;;;;;;;105.78;49.35;;;;;;;6.66;100.00;96633.13;5056946;28;20496;-65
2024/03/04 09:29:32;;;;;;;55.88;27.13;;;;;;;6.79;100.00;96633.88;5047190;28;20048;-64
2024/03/04 09:31:59;;;;;;;68.65;29.80;;;;;;;6.76;100.00;96629.78;5061072;28;20063;-64
2024/03/04 09:34:26;;;;;;;52.47;24.08;;;;;;;6.87;100.00;96641.53;5059171;28;20045;-65
2024/03/04 09:36:52;;;;;;;56.95;26.02;;;;;;;6.87;100.00;96633.44;5048274;28;20130;-65
2024/03/04 09:39:19;;;;;;;64.72;30.20;;;;;;;6.86;100.00;96629.94;5052812;28;20045;-64
2024/03/04 09:41:46;;;;;;;55.72;27.35;;;;;;;6.82;100.00;96638.78;5054336;28;20886;-65
2024/03/04 09:44:13;;;;;;;58.10;25.55;;;;;;;6.87;100.00;96638.84;5050933;28;20122;-65
2024/03/04 09:46:41;;;;;;;64.50;27.17;;;;;;;6.88;100.00;96638.59;5055158;28;20041;-65
2024/03/04 09:49:09;;;;;;;65.80;32.47;;;;;;;6.76;100.00;96640.56;5053066;28;20734;-65
2024/03/04 09:51:37;;;;;;;60.22;27.05;;;;;;;6.85;100.00;96644.47;5059547;28;20059;-65
2024/03/04 09:54:05;;;;;;;61.55;27.20;;;;;;;6.88;100.00;96645.84;5065167;28;20052;-65
2024/03/04 09:56:32;;;;;;;61.80;27.90;;;;;;;6.81;100.00;96637.16;5047643;28;20175;-65
2024/03/04 09:58:58;;;;;;;56.88;26.38;;;;;;;6.81;100.00;96648.69;5057141;28;20047;-65
2024/03/04 10:01:25;;;;;;;56.08;25.63;;;;;;;7.01;100.00;96647.41;5052825;28;20579;-65
2024/03/04 10:03:54;;;;;;;60.20;27.48;;;;;;;6.79;100.00;96650.84;5049887;28;20045;-65
2024/03/04 10:06:21;;;;;;;52.15;24.90;;;;;;;6.88;100.00;96648.53;5045497;28;20037;-65
2024/03/04 10:08:48;;;;;;;55.58;24.77;;;;;;;7.06;100.00;96657.41;5062899;28;20120;-65
2024/03/04 10:11:14;;;;;;;50.97;24.63;;;;;;;7.16;100.00;96657.56;5045910;28;20092;-65
2024/03/04 10:13:42;;;;;;;53.25;24.42;;;;;;;7.20;100.00;96657.88;5050623;28;20044;-65
2024/03/04 10:16:13;;;;;;;47.88;22.50;;;;;;;7.13;100.00;96652.66;5050210;28;20528;-65
2024/03/04 10:18:40;;;;;;;50.88;22.77;;;;;;;7.03;100.00;96656.84;5054547;28;20617;-65
2024/03/04 10:21:07;;;;;;;51.78;24.50;;;;;;;7.05;100.00;96655.78;5058022;28;20059;-65
2024/03/04 10:23:36;;;;;;;51.25;24.05;;;;;;;6.92;100.00;96651.56;5056267;28;20764;-65
2024/03/04 10:26:09;;;;;;;51.13;24.92;;;;;;;6.98;100.00;96658.66;5053278;28;20051;-65
2024/03/04 10:28:41;;;;;;;46.28;23.25;;;;;;;7.19;100.00;96657.06;5045167;28;20112;-65
2024/03/04 10:31:11;;;;;;;;;;;;;;;7.21;100.00;96656.81;5058821;28;20044;-65
2024/03/04 10:33:40;;;;;;;53.10;23.45;;;;;;;7.40;100.00;96654.63;5051179;28;19925;-65
2024/03/04 10:36:20;;;;;;;45.75;21.80;;;;;;;7.22;100.00;96659.25;5049780;28;20040;-65
2024/03/04 10:38:47;;;;;;;50.08;22.40;;;;;;;7.19;100.00;96653.56;5050094;28;20071;-65
2024/03/04 10:41:18;;;;;;;55.15;29.45;;;;;;;7.23;100.00;96660.88;5053868;28;20111;-65
2024/03/04 10:43:46;;;;;;;48.27;24.13;;;;;;;7.24;100.00;96664.41;5049269;28;20044;-65
2024/03/04 10:46:14;;;;;;;46.38;23.50;;;;;;;7.31;100.00;96662.34;5053447;28;21058;-65
2024/03/04 10:48:42;;;;;;;48.70;23.65;;;;;;;7.27;100.00;96666.59;5051230;28;20115;-65
2024/03/04 10:51:08;;;;;;;45.13;20.92;;;;;;;7.44;100.00;96666.56;5056352;28;20119;-65
2024/03/04 10:53:35;;;;;;;50.40;23.05;;;;;;;7.57;100.00;96660.00;5052503;28;20056;-65
2024/03/04 10:56:05;;;;;;;75.13;38.10;;;;;;;7.31;100.00;96656.97;5052741;28;20044;-65
2024/03/04 10:58:33;;;;;;;51.17;24.58;;;;;;;7.44;100.00;96660.38;5052688;28;20045;-65
2024/03/04 11:01:06;;;;;;;51.30;25.55;;;;;;;7.49;100.00;96657.72;5052384;28;20084;-65
2024/03/04 11:03:40;;;;;;;50.00;25.77;;;;;;;7.58;100.00;96660.78;5048503;28;20044;-65
2024/03/04 11:06:12;;;;;;;50.22;23.55;;;;;;;7.42;100.00;96656.03;5055280;28;20047;-65
2024/03/04 11:08:46;;;;;;;47.42;23.40;;;;;;;7.23;100.00;96654.69;5055794;28;20067;-65
2024/03/04 11:11:13;;;;;;;47.35;23.00;;;;;;;7.15;100.00;96662.13;5055003;28;20049;-65
2024/03/04 11:13:49;;;;;;;54.67;24.75;;;;;;;6.92;100.00;96667.72;5048949;28;20116;-65
2024/03/04 11:16:23;;;;;;;49.63;22.63;;;;;;;7.09;100.00;96663.13;5048543;28;20456;-65
2024/03/04 11:19:01;;;;;;;56.03;23.42;;;;;;;7.26;100.00;96670.38;5050057;28;20037;-65